KBUF/BUF METAR and TAF weather

Enter ICAO airport designator
Station Type Date Time Source
KBUF METAR 2018/01/22 19:54 UTC NOAA

KBUF 221954Z 08004KT 7SM -RA SCT075 BKN090 BKN130 BKN250 07/07 A2985 RMK AO2 RAB54 SLP111 PCPN VRY LGT P0000 T00720067


Station Type Date Time Source
KBUF Decoded METAR 2018/01/22 19:54 UTC NOAA

GREATER BUFFALO INTERNATIONAL AIRPORT , NY, United States (KBUF) 42-56N 078-44W 225M
Jan 22, 2018 - 02:54 PM EST / 2018.01.22 1954 UTC
Wind: from the E (080 degrees) at 5 MPH (4 KT):0
Visibility: 7 mile(s):0
Sky conditions: mostly cloudy
Weather: light rain
Precipitation last hour: A trace
Temperature: 45.0 F (7.2 C)
Dew Point: 44.1 F (6.7 C)
Relative Humidity: 96%
Pressure (altimeter): 29.85 in. Hg (1010 hPa)
ob: KBUF 221954Z 08004KT 7SM -RA SCT075 BKN090 BKN130 BKN250 07/07 A2985 RMK AO2 RAB54 SLP111 PCPN VRY LGT P0000 T00720067
cycle: 20

Station Type Date Time Source
KBUF TAF 2018/01/22 18:22 UTC NOAA

TAF KBUF 221720Z 2218/2318 07004KT 3SM -RA OVC015
FM222100 08007KT P6SM OVC035 WS020/21035KT
FM230100 11010G22KT P6SM OVC035 WS020/20035KT
FM230400 17014G26KT 5SM -RA OVC015 WS020/20040KT
FM231100 21017G31KT P6SM OVC015
FM231600 23019G31KT 6SM -RA OVC020


Example: see airport list